createdAt,value
2023-05-05T00:02:50.895Z,11.71
2023-05-05T00:06:12.569Z,11.68
2023-05-05T00:09:33.896Z,11.66
2023-05-05T00:12:55.668Z,11.61
2023-05-05T00:16:18.663Z,11.56
2023-05-05T00:19:40.648Z,11.52
2023-05-05T00:23:02.206Z,11.50
2023-05-05T00:26:23.959Z,11.51
2023-05-05T00:29:47.099Z,11.49
2023-05-05T00:33:09.742Z,11.46
2023-05-05T00:36:31.130Z,11.40
2023-05-05T00:39:52.273Z,11.35
2023-05-05T00:43:14.010Z,11.36
2023-05-05T00:46:36.857Z,11.33
2023-05-05T00:49:59.894Z,11.30
2023-05-05T00:53:21.151Z,11.27
2023-05-05T00:56:43.352Z,11.25
2023-05-05T01:00:06.014Z,11.23
2023-05-05T01:03:28.013Z,11.23
2023-05-05T01:07:04.719Z,11.23
2023-05-05T01:10:35.812Z,11.21
2023-05-05T01:14:05.377Z,11.18
2023-05-05T01:17:34.850Z,11.15
2023-05-05T01:21:02.846Z,11.13
2023-05-05T01:24:46.972Z,11.11
2023-05-05T01:28:20.400Z,11.09
2023-05-05T01:31:52.052Z,11.09
2023-05-05T01:35:18.311Z,11.07
2023-05-05T01:38:43.495Z,11.06
2023-05-05T01:42:09.278Z,11.04
2023-05-05T01:45:34.831Z,11.03
2023-05-05T01:48:58.619Z,11.03
2023-05-05T01:52:21.770Z,11.01
2023-05-05T01:55:44.432Z,11.00
2023-05-05T01:59:07.710Z,11.00
2023-05-05T02:02:31.563Z,10.99
2023-05-05T02:05:54.895Z,10.98
2023-05-05T02:09:17.400Z,10.96
2023-05-05T02:12:42.082Z,10.96
2023-05-05T02:16:06.076Z,10.96
2023-05-05T02:19:31.407Z,10.93
2023-05-05T02:22:55.247Z,10.93
2023-05-05T02:26:18.213Z,10.92
2023-05-05T02:29:46.359Z,10.91
2023-05-05T02:33:12.356Z,10.90
2023-05-05T02:36:38.160Z,10.89
2023-05-05T02:40:05.562Z,10.88
2023-05-05T02:43:32.775Z,10.86
2023-05-05T02:46:55.197Z,10.85
2023-05-05T02:50:17.761Z,10.84
2023-05-05T02:53:56.335Z,10.83
2023-05-05T02:57:24.505Z,10.82
2023-05-05T03:01:01.739Z,10.81
2023-05-05T03:04:27.968Z,10.78
2023-05-05T03:07:55.127Z,10.74
2023-05-05T03:11:27.340Z,10.71
2023-05-05T03:14:53.427Z,10.71
2023-05-05T03:18:17.614Z,10.71
2023-05-05T03:21:44.423Z,10.68
2023-05-05T03:25:07.237Z,10.68
2023-05-05T03:28:29.103Z,10.65
2023-05-05T03:31:54.668Z,10.66
2023-05-05T03:35:16.257Z,10.66
2023-05-05T03:38:38.179Z,10.64
2023-05-05T03:41:59.770Z,10.63
2023-05-05T03:45:25.108Z,10.62
2023-05-05T03:48:48.867Z,10.61
2023-05-05T03:55:32.906Z,10.59
2023-05-05T03:58:54.249Z,10.59
2023-05-05T04:02:18.296Z,10.59
2023-05-05T04:05:41.959Z,10.58
2023-05-05T04:09:04.215Z,10.57
2023-05-05T04:12:25.973Z,10.58
2023-05-05T04:15:47.636Z,10.57
2023-05-05T04:19:13.001Z,10.60
2023-05-05T04:22:36.752Z,10.61
2023-05-05T04:25:58.784Z,10.63
2023-05-05T04:29:21.716Z,10.62
2023-05-05T04:32:43.542Z,10.64
2023-05-05T04:36:06.170Z,10.66
2023-05-05T04:39:29.154Z,10.65
2023-05-05T04:42:51.343Z,10.68
2023-05-05T04:46:13.140Z,10.69
2023-05-05T04:49:34.605Z,10.71
2023-05-05T04:52:56.334Z,10.72
2023-05-05T04:56:20.078Z,10.72
2023-05-05T04:59:41.698Z,10.75
2023-05-05T05:03:03.545Z,10.75
2023-05-05T05:06:25.427Z,10.77
2023-05-05T05:09:47.976Z,10.78
2023-05-05T05:13:12.769Z,10.81
2023-05-05T05:16:34.832Z,10.81
2023-05-05T05:19:57.045Z,10.81
2023-05-05T05:23:18.447Z,10.82
2023-05-05T05:26:40.922Z,10.82
2023-05-05T05:30:04.513Z,10.84
2023-05-05T05:33:27.841Z,10.88
2023-05-05T05:36:50.969Z,10.90
2023-05-05T05:40:13.951Z,10.91
2023-05-05T05:43:35.560Z,10.93
2023-05-05T05:46:59.724Z,10.95
2023-05-05T05:50:22.220Z,10.96
2023-05-05T05:53:43.868Z,11.00
2023-05-05T05:57:05.653Z,11.03
2023-05-05T06:00:27.500Z,11.09
2023-05-05T06:03:57.794Z,11.11
2023-05-05T06:07:19.686Z,11.18
2023-05-05T06:10:42.149Z,11.21
2023-05-05T06:14:08.253Z,11.29
2023-05-05T06:17:29.965Z,11.35
2023-05-05T06:20:53.564Z,11.37
2023-05-05T06:24:18.545Z,11.41
2023-05-05T06:27:39.864Z,11.42
2023-05-05T06:31:01.545Z,11.41
2023-05-05T06:34:23.244Z,11.47
2023-05-05T06:37:45.915Z,11.54
2023-05-05T06:41:07.416Z,11.55
2023-05-05T06:44:31.056Z,11.63
2023-05-05T06:47:52.698Z,11.70
2023-05-05T06:51:15.514Z,11.79
2023-05-05T06:54:38.601Z,11.84
2023-05-05T06:58:01.287Z,11.94
2023-05-05T07:01:23.571Z,12.04
2023-05-05T07:04:45.264Z,12.16
2023-05-05T07:08:09.048Z,12.19
2023-05-05T07:11:32.071Z,12.28
2023-05-05T07:14:53.441Z,12.32
2023-05-05T07:18:16.013Z,12.42
2023-05-05T07:21:39.583Z,12.50
2023-05-05T07:25:01.415Z,12.58
2023-05-05T07:28:24.901Z,12.70
2023-05-05T07:31:46.443Z,12.79
2023-05-05T07:35:08.975Z,12.87
2023-05-05T07:38:30.393Z,12.96
2023-05-05T07:41:51.701Z,13.06
2023-05-05T07:45:14.547Z,13.13
2023-05-05T07:48:35.948Z,13.20
2023-05-05T07:51:57.353Z,13.28
2023-05-05T07:55:19.348Z,13.37
2023-05-05T07:58:42.196Z,13.48
2023-05-05T08:02:06.553Z,13.57
2023-05-05T08:05:28.202Z,13.71
2023-05-05T08:08:50.022Z,13.77
2023-05-05T08:12:12.400Z,13.88
2023-05-05T08:15:33.936Z,13.99
2023-05-05T08:18:57.017Z,14.07
2023-05-05T08:22:18.654Z,14.21
2023-05-05T08:25:40.373Z,14.32
2023-05-05T08:29:02.042Z,14.37
2023-05-05T08:32:23.764Z,14.44
2023-05-05T08:35:46.913Z,14.48
2023-05-05T08:39:08.567Z,14.59
2023-05-05T08:42:38.136Z,14.68
2023-05-05T08:46:01.439Z,14.74
2023-05-05T08:49:23.607Z,14.83
2023-05-05T08:52:51.291Z,14.91
2023-05-05T08:56:15.390Z,15.01
2023-05-05T08:59:39.565Z,15.13
2023-05-05T09:03:02.273Z,15.23
2023-05-05T09:06:26.926Z,15.36
2023-05-05T09:09:51.439Z,15.44
2023-05-05T09:13:13.264Z,15.55
2023-05-05T09:16:35.135Z,15.59
2023-05-05T09:20:03.795Z,15.61
2023-05-05T09:23:25.188Z,15.70
2023-05-05T09:26:49.776Z,15.81
2023-05-05T09:30:13.456Z,15.91
2023-05-05T09:33:35.105Z,16.00
2023-05-05T09:36:56.384Z,15.98
2023-05-05T09:40:19.693Z,16.03
2023-05-05T09:43:53.098Z,16.13
2023-05-05T09:47:26.188Z,16.12
2023-05-05T09:50:51.241Z,16.12
2023-05-05T09:54:23.402Z,16.18
2023-05-05T09:57:47.248Z,16.26
2023-05-05T10:01:22.953Z,16.31
2023-05-05T10:04:44.360Z,16.41
2023-05-05T10:08:14.181Z,16.45
2023-05-05T10:11:36.961Z,16.47
2023-05-05T10:15:02.076Z,16.58
2023-05-05T10:18:26.520Z,16.66
2023-05-05T10:21:50.594Z,16.71
2023-05-05T10:25:13.617Z,16.78
2023-05-05T10:28:38.304Z,16.85
2023-05-05T10:32:21.399Z,16.89
2023-05-05T10:35:53.801Z,16.98
2023-05-05T10:39:17.289Z,17.09
2023-05-05T10:42:40.338Z,17.15
2023-05-05T10:46:03.033Z,17.13
2023-05-05T10:49:32.938Z,17.19
2023-05-05T10:53:04.600Z,17.27
2023-05-05T10:56:30.138Z,17.38
2023-05-05T10:59:51.937Z,17.43
2023-05-05T11:03:24.359Z,17.49
2023-05-05T11:07:23.286Z,17.53
2023-05-05T11:10:46.336Z,17.61
2023-05-05T11:14:21.305Z,17.60
2023-05-05T11:17:46.675Z,17.62
2023-05-05T11:21:19.015Z,17.68
2023-05-05T11:24:42.259Z,17.72
2023-05-05T11:28:09.552Z,17.70
2023-05-05T11:31:31.836Z,17.70
2023-05-05T11:34:53.654Z,17.77
2023-05-05T11:38:16.736Z,17.74
2023-05-05T11:42:10.427Z,17.76
2023-05-05T11:45:34.135Z,17.79
2023-05-05T11:48:55.946Z,17.81
2023-05-05T11:52:17.181Z,17.86
2023-05-05T11:55:38.411Z,17.90
2023-05-05T11:59:09.702Z,17.94
2023-05-05T12:02:32.726Z,17.97
2023-05-05T12:05:55.701Z,17.91
2023-05-05T12:09:17.959Z,17.91
2023-05-05T12:12:42.209Z,17.90
2023-05-05T12:16:10.515Z,18.00
2023-05-05T12:19:33.992Z,18.01
2023-05-05T12:23:00.936Z,18.03
2023-05-05T12:26:26.530Z,18.07
2023-05-05T12:29:48.215Z,18.20
2023-05-05T12:33:09.435Z,18.21
2023-05-05T12:36:33.638Z,18.30
2023-05-05T12:39:55.894Z,18.44
2023-05-05T12:43:28.330Z,18.51
2023-05-05T12:46:52.920Z,18.59
2023-05-05T12:50:14.511Z,18.62
2023-05-05T12:53:37.266Z,18.64
2023-05-05T12:56:59.367Z,18.56
2023-05-05T13:00:22.121Z,18.51
2023-05-05T13:03:43.421Z,18.56
2023-05-05T13:07:12.784Z,18.57
2023-05-05T13:10:36.275Z,18.67
2023-05-05T13:13:57.799Z,18.76
2023-05-05T13:17:20.285Z,18.83
2023-05-05T13:20:41.616Z,18.86
2023-05-05T13:24:18.998Z,18.94
2023-05-05T13:27:45.896Z,19.05
2023-05-05T13:31:07.917Z,19.12
2023-05-05T13:34:29.418Z,19.16
2023-05-05T13:37:51.009Z,19.15
2023-05-05T13:41:12.644Z,19.16
2023-05-05T13:44:35.387Z,19.21
2023-05-05T13:47:57.272Z,19.27
2023-05-05T13:51:18.928Z,19.35
2023-05-05T13:54:40.868Z,19.44
2023-05-05T13:58:02.046Z,19.49
2023-05-05T14:01:24.833Z,19.47
2023-05-05T14:04:46.384Z,19.49
2023-05-05T14:08:07.589Z,19.50
2023-05-05T14:11:28.856Z,19.58
2023-05-05T14:14:50.454Z,19.66
2023-05-05T14:18:13.626Z,19.70
2023-05-05T14:21:35.460Z,19.79
2023-05-05T14:24:57.473Z,19.89
2023-05-05T14:28:19.426Z,19.96
2023-05-05T14:31:40.663Z,20.00
2023-05-05T14:35:04.391Z,20.03
2023-05-05T14:38:25.932Z,20.15
2023-05-05T14:41:47.608Z,20.28
2023-05-05T14:45:11.078Z,20.46
2023-05-05T14:48:32.607Z,20.72
2023-05-05T14:51:56.703Z,21.10
2023-05-05T14:55:18.551Z,21.34
2023-05-05T14:58:40.366Z,21.60
2023-05-05T15:02:02.273Z,21.64
2023-05-05T15:05:23.892Z,21.68
2023-05-05T15:08:46.875Z,21.76
2023-05-05T15:12:08.760Z,21.66
2023-05-05T15:15:30.099Z,21.70
2023-05-05T15:18:52.126Z,21.82
2023-05-05T15:22:13.235Z,21.91
2023-05-05T15:25:36.573Z,22.07
2023-05-05T15:28:58.160Z,22.19
2023-05-05T15:32:19.330Z,22.15
2023-05-05T15:35:40.588Z,22.21
2023-05-05T15:39:02.260Z,22.24
2023-05-05T15:42:25.454Z,22.47
2023-05-05T15:45:46.810Z,22.50
2023-05-05T15:49:08.456Z,22.61
2023-05-05T15:52:29.729Z,22.72
2023-05-05T15:55:51.410Z,22.88
2023-05-05T15:59:14.155Z,22.90
2023-05-05T16:02:35.733Z,22.91
2023-05-05T16:05:57.563Z,22.97
2023-05-05T16:09:19.817Z,23.01
2023-05-05T16:12:41.145Z,23.06
2023-05-05T16:16:04.754Z,23.03
2023-05-05T16:19:28.377Z,23.02
2023-05-05T16:22:49.914Z,22.87
2023-05-05T16:26:11.235Z,22.83
2023-05-05T16:29:32.512Z,22.75
2023-05-05T16:32:55.173Z,22.43
2023-05-05T16:36:16.604Z,22.30
2023-05-05T16:39:40.259Z,22.03
2023-05-05T16:43:02.156Z,21.81
2023-05-05T16:46:23.444Z,21.64
2023-05-05T16:49:46.588Z,21.44
2023-05-05T16:53:08.953Z,21.23
2023-05-05T16:56:30.546Z,21.05
2023-05-05T16:59:52.385Z,20.90
2023-05-05T17:03:13.770Z,20.71
2023-05-05T17:06:37.053Z,20.54
2023-05-05T17:09:58.773Z,20.35
2023-05-05T17:13:20.525Z,20.19
2023-05-05T17:16:42.296Z,20.02
2023-05-05T17:20:04.813Z,19.83
2023-05-05T17:23:28.115Z,19.70
2023-05-05T17:26:49.511Z,19.58
2023-05-05T17:30:11.574Z,19.50
2023-05-05T17:33:33.324Z,19.37
2023-05-05T17:36:54.492Z,19.22
2023-05-05T17:40:17.318Z,19.06
2023-05-05T17:43:38.698Z,18.92
2023-05-05T17:47:00.163Z,18.72
2023-05-05T17:50:21.520Z,18.58
2023-05-05T17:53:43.331Z,18.49
2023-05-05T17:57:06.120Z,18.36
2023-05-05T18:00:27.789Z,18.29
2023-05-05T18:03:49.584Z,18.17
2023-05-05T18:07:12.200Z,18.07
2023-05-05T18:10:33.598Z,17.92
2023-05-05T18:13:57.302Z,17.84
2023-05-05T18:17:18.861Z,17.71
2023-05-05T18:20:41.215Z,17.62
2023-05-05T18:24:18.210Z,17.54
2023-05-05T18:27:41.811Z,17.39
2023-05-05T18:31:04.721Z,17.31
2023-05-05T18:34:26.347Z,17.20
2023-05-05T18:37:48.287Z,17.12
2023-05-05T18:41:10.060Z,17.02
2023-05-05T18:44:32.697Z,16.96
2023-05-05T18:47:56.416Z,16.84
2023-05-05T18:51:17.818Z,16.78
2023-05-05T18:54:39.791Z,16.71
2023-05-05T18:58:00.986Z,16.64
2023-05-05T19:01:23.361Z,16.54
2023-05-05T19:04:46.252Z,16.47
2023-05-05T19:08:08.197Z,16.38
2023-05-05T19:11:29.739Z,16.29
2023-05-05T19:14:51.403Z,16.27
2023-05-05T19:18:13.071Z,16.22
2023-05-05T19:21:36.665Z,16.18
2023-05-05T19:24:58.138Z,16.14
2023-05-05T19:28:19.549Z,16.10
2023-05-05T19:31:41.283Z,16.02
2023-05-05T19:35:03.185Z,15.97
2023-05-05T19:38:26.025Z,15.94
2023-05-05T19:41:47.270Z,15.88
2023-05-05T19:45:09.487Z,15.78
2023-05-05T19:48:31.413Z,15.69
2023-05-05T19:51:54.366Z,15.63
2023-05-05T19:55:17.021Z,15.49
2023-05-05T19:58:54.198Z,15.47
2023-05-05T20:02:16.943Z,15.41
2023-05-05T20:05:38.653Z,15.32
2023-05-05T20:09:00.434Z,15.29
2023-05-05T20:12:23.821Z,15.25
2023-05-05T20:15:45.390Z,15.14
2023-05-05T20:19:07.171Z,15.08
2023-05-05T20:22:28.826Z,15.02
2023-05-05T20:25:50.767Z,15.00
2023-05-05T20:29:15.118Z,14.93
2023-05-05T20:32:36.860Z,14.89
2023-05-05T20:35:58.501Z,14.90
2023-05-05T20:39:19.861Z,14.86
2023-05-05T20:42:41.517Z,14.79
2023-05-05T20:46:04.452Z,14.75
2023-05-05T20:49:25.828Z,14.70
2023-05-05T20:52:47.535Z,14.69
2023-05-05T20:56:09.238Z,14.64
2023-05-05T20:59:30.864Z,14.62
2023-05-05T21:02:53.889Z,14.54
2023-05-05T21:06:15.397Z,14.52
2023-05-05T21:09:37.357Z,14.46
2023-05-05T21:12:58.812Z,14.45
2023-05-05T21:16:20.647Z,14.36
2023-05-05T21:19:43.744Z,14.35
2023-05-05T21:23:06.567Z,14.31
2023-05-05T21:26:28.339Z,14.23
2023-05-05T21:29:51.659Z,14.21
2023-05-05T21:33:13.138Z,14.17
2023-05-05T21:36:36.824Z,14.13
2023-05-05T21:39:58.280Z,14.07
2023-05-05T21:43:19.937Z,14.10
2023-05-05T21:46:41.258Z,14.04
2023-05-05T21:50:02.800Z,13.95
2023-05-05T21:53:25.942Z,13.88
2023-05-05T21:56:47.071Z,13.88
2023-05-05T22:00:09.967Z,13.86
2023-05-05T22:03:35.061Z,13.81
2023-05-05T22:06:56.642Z,13.82
2023-05-05T22:10:19.251Z,13.86
2023-05-05T22:13:40.926Z,13.81
2023-05-05T22:17:02.592Z,13.82
2023-05-05T22:20:23.882Z,13.84
2023-05-05T22:23:46.523Z,13.82
2023-05-05T22:27:09.368Z,13.79
2023-05-05T22:30:31.034Z,13.78
2023-05-05T22:33:52.768Z,13.78
2023-05-05T22:37:14.519Z,13.80
2023-05-05T22:40:36.127Z,13.78
2023-05-05T22:43:59.258Z,13.77
2023-05-05T22:47:20.697Z,13.79
2023-05-05T22:50:42.369Z,13.70
2023-05-05T22:54:03.880Z,13.72
2023-05-05T22:57:25.709Z,13.70
2023-05-05T23:00:48.808Z,13.68
2023-05-05T23:04:10.482Z,13.65
2023-05-05T23:07:32.426Z,13.64
2023-05-05T23:10:54.505Z,13.62
2023-05-05T23:14:16.828Z,13.59
2023-05-05T23:17:39.339Z,13.51
2023-05-05T23:21:00.902Z,13.52
2023-05-05T23:24:23.179Z,13.48
2023-05-05T23:27:44.792Z,13.49
2023-05-05T23:31:06.072Z,13.44
2023-05-05T23:34:29.095Z,13.43
2023-05-05T23:37:50.779Z,13.35
2023-05-05T23:41:12.056Z,13.34
2023-05-05T23:44:33.929Z,13.34
2023-05-05T23:47:56.072Z,13.34
2023-05-05T23:51:18.971Z,13.33
2023-05-05T23:54:40.455Z,13.28
2023-05-05T23:58:02.102Z,13.21
